sensor_id;sensor_type;location;lat;lon;timestamp;temperature;humidity
3756;DHT22;1893;52.526;13.360;2022-12-18T00:01:57;-5.50;99.90
3756;DHT22;1893;52.526;13.360;2022-12-18T00:04:27;-5.60;99.90
3756;DHT22;1893;52.526;13.360;2022-12-18T00:06:52;-5.60;99.90
3756;DHT22;1893;52.526;13.360;2022-12-18T00:09:18;-5.60;99.90
3756;DHT22;1893;52.526;13.360;2022-12-18T00:11:44;-5.70;99.90
3756;DHT22;1893;52.526;13.360;2022-12-18T00:14:13;-5.60;99.90
3756;DHT22;1893;52.526;13.360;2022-12-18T00:16:39;-5.60;99.90
3756;DHT22;1893;52.526;13.360;2022-12-18T00:19:05;-5.60;99.90
3756;DHT22;1893;52.526;13.360;2022-12-18T00:21:32;-5.70;99.90
3756;DHT22;1893;52.526;13.360;2022-12-18T00:23:59;-5.60;99.90
3756;DHT22;1893;52.526;13.360;2022-12-18T00:26:30;-5.70;99.90
3756;DHT22;1893;52.526;13.360;2022-12-18T00:28:59;-5.70;99.90
3756;DHT22;1893;52.526;13.360;2022-12-18T00:31:25;-5.70;99.90
3756;DHT22;1893;52.526;13.360;2022-12-18T00:33:52;-5.70;99.90
3756;DHT22;1893;52.526;13.360;2022-12-18T00:36:27;-5.70;99.90
3756;DHT22;1893;52.526;13.360;2022-12-18T00:38:54;-5.70;99.90
3756;DHT22;1893;52.526;13.360;2022-12-18T00:41:21;-5.70;99.90
3756;DHT22;1893;52.526;13.360;2022-12-18T00:44:06;-5.80;99.90
3756;DHT22;1893;52.526;13.360;2022-12-18T00:46:33;-5.80;99.90
3756;DHT22;1893;52.526;13.360;2022-12-18T00:48:59;-5.80;99.90
3756;DHT22;1893;52.526;13.360;2022-12-18T00:51:25;-5.80;99.90
3756;DHT22;1893;52.526;13.360;2022-12-18T00:53:52;-5.80;99.90
3756;DHT22;1893;52.526;13.360;2022-12-18T00:56:21;-5.60;99.90
3756;DHT22;1893;52.526;13.360;2022-12-18T00:58:47;-5.60;99.90
3756;DHT22;1893;52.526;13.360;2022-12-18T01:01:12;-5.60;99.90
3756;DHT22;1893;52.526;13.360;2022-12-18T01:03:38;-5.60;99.90
3756;DHT22;1893;52.526;13.360;2022-12-18T01:06:08;-5.50;99.90
3756;DHT22;1893;52.526;13.360;2022-12-18T01:08:34;-5.50;99.90
3756;DHT22;1893;52.526;13.360;2022-12-18T01:11:00;-5.60;99.90
3756;DHT22;1893;52.526;13.360;2022-12-18T01:13:26;-5.80;99.90
3756;DHT22;1893;52.526;13.360;2022-12-18T01:15:52;-5.90;99.90
3756;DHT22;1893;52.526;13.360;2022-12-18T01:18:18;-5.90;99.90
3756;DHT22;1893;52.526;13.360;2022-12-18T01:20:43;-5.90;99.90
3756;DHT22;1893;52.526;13.360;2022-12-18T01:23:09;-5.80;99.90
3756;DHT22;1893;52.526;13.360;2022-12-18T01:25:38;-5.90;99.90
3756;DHT22;1893;52.526;13.360;2022-12-18T01:28:04;-5.80;99.90
3756;DHT22;1893;52.526;13.360;2022-12-18T01:30:29;-5.90;99.90
3756;DHT22;1893;52.526;13.360;2022-12-18T01:32:55;-5.90;99.90
3756;DHT22;1893;52.526;13.360;2022-12-18T01:35:20;-5.90;99.90
3756;DHT22;1893;52.526;13.360;2022-12-18T01:37:46;-6.00;99.90
3756;DHT22;1893;52.526;13.360;2022-12-18T01:40:12;-6.00;99.90
3756;DHT22;1893;52.526;13.360;2022-12-18T01:42:38;-5.80;99.90
3756;DHT22;1893;52.526;13.360;2022-12-18T01:53:18;-6.00;99.90
3756;DHT22;1893;52.526;13.360;2022-12-18T01:55:51;-6.10;99.90
3756;DHT22;1893;52.526;13.360;2022-12-18T01:58:20;-6.20;99.90
3756;DHT22;1893;52.526;13.360;2022-12-18T02:00:48;-6.30;99.90
3756;DHT22;1893;52.526;13.360;2022-12-18T02:03:13;-6.20;99.90
3756;DHT22;1893;52.526;13.360;2022-12-18T02:14:52;-6.10;99.90
3756;DHT22;1893;52.526;13.360;2022-12-18T02:17:22;-6.00;99.90
3756;DHT22;1893;52.526;13.360;2022-12-18T02:27:46;-5.90;99.90
3756;DHT22;1893;52.526;13.360;2022-12-18T02:30:13;-5.80;99.90
3756;DHT22;1893;52.526;13.360;2022-12-18T02:32:46;-5.80;99.90
3756;DHT22;1893;52.526;13.360;2022-12-18T02:35:20;-5.80;99.90
3756;DHT22;1893;52.526;13.360;2022-12-18T02:37:48;-5.90;99.90
3756;DHT22;1893;52.526;13.360;2022-12-18T02:40:15;-5.90;99.90
3756;DHT22;1893;52.526;13.360;2022-12-18T02:42:42;-6.00;99.90
3756;DHT22;1893;52.526;13.360;2022-12-18T02:45:08;-6.10;99.90
3756;DHT22;1893;52.526;13.360;2022-12-18T02:47:37;-6.10;99.90
3756;DHT22;1893;52.526;13.360;2022-12-18T02:53:09;-6.10;99.90
3756;DHT22;1893;52.526;13.360;2022-12-18T02:58:15;-6.10;99.90
3756;DHT22;1893;52.526;13.360;2022-12-18T03:00:58;-6.10;99.90
3756;DHT22;1893;52.526;13.360;2022-12-18T03:03:51;-6.10;99.90
3756;DHT22;1893;52.526;13.360;2022-12-18T03:06:26;-6.10;99.90
3756;DHT22;1893;52.526;13.360;2022-12-18T03:08:59;-6.10;99.90
3756;DHT22;1893;52.526;13.360;2022-12-18T03:11:28;-6.20;99.90
3756;DHT22;1893;52.526;13.360;2022-12-18T03:14:15;-6.10;99.90
3756;DHT22;1893;52.526;13.360;2022-12-18T03:16:42;-6.20;99.90
3756;DHT22;1893;52.526;13.360;2022-12-18T03:19:12;-6.30;99.90
3756;DHT22;1893;52.526;13.360;2022-12-18T03:21:44;-6.30;99.90
3756;DHT22;1893;52.526;13.360;2022-12-18T03:24:11;-6.20;99.90
3756;DHT22;1893;52.526;13.360;2022-12-18T03:26:40;-6.00;99.90
3756;DHT22;1893;52.526;13.360;2022-12-18T03:29:13;-6.10;99.90
3756;DHT22;1893;52.526;13.360;2022-12-18T03:31:42;-6.20;99.90
3756;DHT22;1893;52.526;13.360;2022-12-18T03:34:19;-6.20;99.90
3756;DHT22;1893;52.526;13.360;2022-12-18T03:36:47;-6.20;99.90
3756;DHT22;1893;52.526;13.360;2022-12-18T03:39:13;-6.20;99.90
3756;DHT22;1893;52.526;13.360;2022-12-18T03:44:44;-6.40;99.90
3756;DHT22;1893;52.526;13.360;2022-12-18T03:47:21;-6.50;99.90
3756;DHT22;1893;52.526;13.360;2022-12-18T03:52:30;-6.50;99.90
3756;DHT22;1893;52.526;13.360;2022-12-18T03:54:58;-6.50;99.90
3756;DHT22;1893;52.526;13.360;2022-12-18T03:57:27;-6.40;99.90
3756;DHT22;1893;52.526;13.360;2022-12-18T03:59:57;-6.40;99.90
3756;DHT22;1893;52.526;13.360;2022-12-18T04:02:24;-6.40;99.90
3756;DHT22;1893;52.526;13.360;2022-12-18T04:04:53;-6.40;99.90
3756;DHT22;1893;52.526;13.360;2022-12-18T04:07:20;-6.40;99.90
3756;DHT22;1893;52.526;13.360;2022-12-18T04:09:48;-6.50;99.90
3756;DHT22;1893;52.526;13.360;2022-12-18T04:12:15;-6.50;99.90
3756;DHT22;1893;52.526;13.360;2022-12-18T04:14:41;-6.50;99.90
3756;DHT22;1893;52.526;13.360;2022-12-18T04:17:06;-6.60;99.90
3756;DHT22;1893;52.526;13.360;2022-12-18T04:19:32;-6.60;99.90
3756;DHT22;1893;52.526;13.360;2022-12-18T04:21:58;-6.60;99.90
3756;DHT22;1893;52.526;13.360;2022-12-18T04:24:23;-6.50;99.90
3756;DHT22;1893;52.526;13.360;2022-12-18T04:26:49;-6.60;99.90
3756;DHT22;1893;52.526;13.360;2022-12-18T04:29:15;-6.60;99.90
3756;DHT22;1893;52.526;13.360;2022-12-18T04:31:40;-6.60;99.90
3756;DHT22;1893;52.526;13.360;2022-12-18T04:34:06;-6.70;99.90
3756;DHT22;1893;52.526;13.360;2022-12-18T04:36:31;-6.70;99.90
3756;DHT22;1893;52.526;13.360;2022-12-18T04:38:57;-6.80;99.90
3756;DHT22;1893;52.526;13.360;2022-12-18T04:41:23;-6.90;99.90
3756;DHT22;1893;52.526;13.360;2022-12-18T04:43:48;-6.90;99.90
3756;DHT22;1893;52.526;13.360;2022-12-18T04:46:14;-6.80;99.90
3756;DHT22;1893;52.526;13.360;2022-12-18T04:48:39;-6.60;99.90
3756;DHT22;1893;52.526;13.360;2022-12-18T04:51:05;-6.60;99.90
3756;DHT22;1893;52.526;13.360;2022-12-18T04:53:32;-6.60;99.90
3756;DHT22;1893;52.526;13.360;2022-12-18T04:56:12;-6.50;99.90
3756;DHT22;1893;52.526;13.360;2022-12-18T04:58:39;-6.50;99.90
3756;DHT22;1893;52.526;13.360;2022-12-18T05:01:05;-6.60;99.90
3756;DHT22;1893;52.526;13.360;2022-12-18T05:03:32;-6.70;99.90
3756;DHT22;1893;52.526;13.360;2022-12-18T05:05:58;-6.80;99.90
3756;DHT22;1893;52.526;13.360;2022-12-18T05:08:24;-6.80;99.90
3756;DHT22;1893;52.526;13.360;2022-12-18T05:10:49;-6.80;99.90
3756;DHT22;1893;52.526;13.360;2022-12-18T05:13:22;-6.90;99.90
3756;DHT22;1893;52.526;13.360;2022-12-18T05:15:52;-6.90;99.90
3756;DHT22;1893;52.526;13.360;2022-12-18T05:18:17;-6.90;99.90
3756;DHT22;1893;52.526;13.360;2022-12-18T05:20:43;-6.80;99.90
3756;DHT22;1893;52.526;13.360;2022-12-18T05:23:09;-6.80;99.90
3756;DHT22;1893;52.526;13.360;2022-12-18T05:25:34;-6.70;99.90
3756;DHT22;1893;52.526;13.360;2022-12-18T05:28:00;-6.70;99.90
3756;DHT22;1893;52.526;13.360;2022-12-18T05:30:25;-6.70;99.90
3756;DHT22;1893;52.526;13.360;2022-12-18T05:32:51;-6.80;99.90
3756;DHT22;1893;52.526;13.360;2022-12-18T05:35:17;-6.80;99.90
3756;DHT22;1893;52.526;13.360;2022-12-18T05:37:42;-6.70;99.90
3756;DHT22;1893;52.526;13.360;2022-12-18T05:40:08;-6.60;99.90
3756;DHT22;1893;52.526;13.360;2022-12-18T05:42:34;-6.60;99.90
3756;DHT22;1893;52.526;13.360;2022-12-18T05:44:59;-6.60;99.90
3756;DHT22;1893;52.526;13.360;2022-12-18T05:47:27;-6.60;99.90
3756;DHT22;1893;52.526;13.360;2022-12-18T05:49:53;-6.60;99.90
3756;DHT22;1893;52.526;13.360;2022-12-18T05:52:19;-6.50;99.90
3756;DHT22;1893;52.526;13.360;2022-12-18T05:54:44;-6.60;99.90
3756;DHT22;1893;52.526;13.360;2022-12-18T05:57:10;-6.50;99.90
3756;DHT22;1893;52.526;13.360;2022-12-18T05:59:35;-6.40;99.90
3756;DHT22;1893;52.526;13.360;2022-12-18T06:02:01;-6.40;99.90
3756;DHT22;1893;52.526;13.360;2022-12-18T06:04:27;-6.50;99.90
3756;DHT22;1893;52.526;13.360;2022-12-18T06:06:54;-6.50;99.90
3756;DHT22;1893;52.526;13.360;2022-12-18T06:09:19;-6.60;99.90
3756;DHT22;1893;52.526;13.360;2022-12-18T06:11:45;-6.60;99.90
3756;DHT22;1893;52.526;13.360;2022-12-18T06:14:10;-6.50;99.90
3756;DHT22;1893;52.526;13.360;2022-12-18T06:16:36;-6.50;99.90
3756;DHT22;1893;52.526;13.360;2022-12-18T06:19:04;-6.40;99.90
3756;DHT22;1893;52.526;13.360;2022-12-18T06:21:30;-6.50;99.90
3756;DHT22;1893;52.526;13.360;2022-12-18T06:23:56;-6.40;99.90
3756;DHT22;1893;52.526;13.360;2022-12-18T06:26:22;-6.50;99.90
3756;DHT22;1893;52.526;13.360;2022-12-18T06:28:48;-6.60;99.90
3756;DHT22;1893;52.526;13.360;2022-12-18T06:31:14;-6.60;99.90
3756;DHT22;1893;52.526;13.360;2022-12-18T06:33:40;-6.60;99.90
3756;DHT22;1893;52.526;13.360;2022-12-18T06:36:10;-6.50;99.90
3756;DHT22;1893;52.526;13.360;2022-12-18T06:38:38;-6.50;99.90
3756;DHT22;1893;52.526;13.360;2022-12-18T06:41:22;-6.60;99.90
3756;DHT22;1893;52.526;13.360;2022-12-18T06:43:47;-6.70;99.90
3756;DHT22;1893;52.526;13.360;2022-12-18T06:46:13;-6.60;99.90
3756;DHT22;1893;52.526;13.360;2022-12-18T06:48:39;-6.40;99.90
3756;DHT22;1893;52.526;13.360;2022-12-18T06:51:05;-6.50;99.90
3756;DHT22;1893;52.526;13.360;2022-12-18T06:53:32;-6.50;99.90
3756;DHT22;1893;52.526;13.360;2022-12-18T06:56:05;-6.50;99.90
3756;DHT22;1893;52.526;13.360;2022-12-18T06:58:31;-6.40;99.90
3756;DHT22;1893;52.526;13.360;2022-12-18T07:01:05;-6.40;99.90
3756;DHT22;1893;52.526;13.360;2022-12-18T07:03:31;-6.30;99.90
3756;DHT22;1893;52.526;13.360;2022-12-18T07:05:56;-6.50;99.90
3756;DHT22;1893;52.526;13.360;2022-12-18T07:08:22;-6.50;99.90
3756;DHT22;1893;52.526;13.360;2022-12-18T07:10:48;-6.60;99.90
3756;DHT22;1893;52.526;13.360;2022-12-18T07:13:16;-6.50;99.90
3756;DHT22;1893;52.526;13.360;2022-12-18T07:15:43;-6.50;99.90
3756;DHT22;1893;52.526;13.360;2022-12-18T07:18:09;-6.50;99.90
3756;DHT22;1893;52.526;13.360;2022-12-18T07:20:35;-6.50;99.90
3756;DHT22;1893;52.526;13.360;2022-12-18T07:23:04;-6.50;99.90
3756;DHT22;1893;52.526;13.360;2022-12-18T07:25:34;-6.50;99.90
3756;DHT22;1893;52.526;13.360;2022-12-18T07:28:00;-6.50;99.90
3756;DHT22;1893;52.526;13.360;2022-12-18T07:30:26;-6.50;99.90
3756;DHT22;1893;52.526;13.360;2022-12-18T07:32:51;-6.60;99.90
3756;DHT22;1893;52.526;13.360;2022-12-18T07:35:17;-6.40;99.90
3756;DHT22;1893;52.526;13.360;2022-12-18T07:37:42;-6.40;99.90
3756;DHT22;1893;52.526;13.360;2022-12-18T07:40:08;-6.30;99.90
3756;DHT22;1893;52.526;13.360;2022-12-18T07:42:34;-6.30;99.90
3756;DHT22;1893;52.526;13.360;2022-12-18T07:45:02;-6.30;99.90
3756;DHT22;1893;52.526;13.360;2022-12-18T07:47:28;-6.30;99.90
3756;DHT22;1893;52.526;13.360;2022-12-18T07:49:54;-6.20;99.90
3756;DHT22;1893;52.526;13.360;2022-12-18T07:52:20;-6.20;99.90
3756;DHT22;1893;52.526;13.360;2022-12-18T07:54:46;-6.20;99.90
3756;DHT22;1893;52.526;13.360;2022-12-18T07:57:14;-6.10;99.90
3756;DHT22;1893;52.526;13.360;2022-12-18T07:59:40;-6.10;99.90
3756;DHT22;1893;52.526;13.360;2022-12-18T08:02:06;-6.00;99.90
3756;DHT22;1893;52.526;13.360;2022-12-18T08:04:31;-6.00;99.90
3756;DHT22;1893;52.526;13.360;2022-12-18T08:06:57;-6.10;99.90
3756;DHT22;1893;52.526;13.360;2022-12-18T08:09:22;-6.10;99.90
3756;DHT22;1893;52.526;13.360;2022-12-18T08:11:48;-6.10;99.90
3756;DHT22;1893;52.526;13.360;2022-12-18T08:14:13;-6.10;99.90
3756;DHT22;1893;52.526;13.360;2022-12-18T08:16:40;-6.00;99.90
3756;DHT22;1893;52.526;13.360;2022-12-18T08:19:05;-5.80;99.90
3756;DHT22;1893;52.526;13.360;2022-12-18T08:21:31;-5.90;99.90
3756;DHT22;1893;52.526;13.360;2022-12-18T08:23:59;-5.70;99.90
3756;DHT22;1893;52.526;13.360;2022-12-18T08:26:27;-5.90;99.90
3756;DHT22;1893;52.526;13.360;2022-12-18T08:28:54;-5.80;99.90
3756;DHT22;1893;52.526;13.360;2022-12-18T08:31:21;-5.70;99.90
3756;DHT22;1893;52.526;13.360;2022-12-18T08:33:51;-5.80;99.90
3756;DHT22;1893;52.526;13.360;2022-12-18T08:36:17;-5.90;99.90
3756;DHT22;1893;52.526;13.360;2022-12-18T08:38:43;-5.90;99.90
3756;DHT22;1893;52.526;13.360;2022-12-18T08:41:11;-5.80;99.90
3756;DHT22;1893;52.526;13.360;2022-12-18T08:43:37;-5.80;99.90
3756;DHT22;1893;52.526;13.360;2022-12-18T08:46:23;-5.70;99.90
3756;DHT22;1893;52.526;13.360;2022-12-18T08:48:50;-5.80;99.90
3756;DHT22;1893;52.526;13.360;2022-12-18T08:51:16;-5.80;99.90
3756;DHT22;1893;52.526;13.360;2022-12-18T08:53:43;-5.80;99.90
3756;DHT22;1893;52.526;13.360;2022-12-18T08:56:10;-5.80;99.90
3756;DHT22;1893;52.526;13.360;2022-12-18T08:58:36;-5.70;99.90
3756;DHT22;1893;52.526;13.360;2022-12-18T09:01:07;-5.70;99.90
3756;DHT22;1893;52.526;13.360;2022-12-18T09:03:34;-5.60;99.90
3756;DHT22;1893;52.526;13.360;2022-12-18T09:06:00;-5.70;99.90
3756;DHT22;1893;52.526;13.360;2022-12-18T09:08:26;-5.70;99.90
3756;DHT22;1893;52.526;13.360;2022-12-18T09:10:52;-5.60;99.90
3756;DHT22;1893;52.526;13.360;2022-12-18T09:13:18;-5.40;99.90
3756;DHT22;1893;52.526;13.360;2022-12-18T09:15:52;-5.50;99.90
3756;DHT22;1893;52.526;13.360;2022-12-18T09:18:19;-5.60;99.90
3756;DHT22;1893;52.526;13.360;2022-12-18T09:20:46;-5.70;99.90
3756;DHT22;1893;52.526;13.360;2022-12-18T09:23:12;-5.80;99.90
3756;DHT22;1893;52.526;13.360;2022-12-18T09:25:38;-5.90;99.90
3756;DHT22;1893;52.526;13.360;2022-12-18T09:28:14;-5.70;99.90
3756;DHT22;1893;52.526;13.360;2022-12-18T09:30:49;-5.70;99.90
3756;DHT22;1893;52.526;13.360;2022-12-18T09:33:15;-5.70;99.90
3756;DHT22;1893;52.526;13.360;2022-12-18T09:35:42;-5.70;99.90
3756;DHT22;1893;52.526;13.360;2022-12-18T09:38:12;-5.70;99.90
3756;DHT22;1893;52.526;13.360;2022-12-18T09:40:45;-5.60;99.90
3756;DHT22;1893;52.526;13.360;2022-12-18T09:43:28;-5.50;99.90
3756;DHT22;1893;52.526;13.360;2022-12-18T09:45:59;-5.40;99.90
3756;DHT22;1893;52.526;13.360;2022-12-18T09:48:31;-5.40;99.90
3756;DHT22;1893;52.526;13.360;2022-12-18T09:51:24;-5.50;99.90
3756;DHT22;1893;52.526;13.360;2022-12-18T09:53:57;-5.30;99.90
3756;DHT22;1893;52.526;13.360;2022-12-18T09:59:51;-5.10;99.90
3756;DHT22;1893;52.526;13.360;2022-12-18T10:02:19;-5.10;99.90
3756;DHT22;1893;52.526;13.360;2022-12-18T10:05:02;-5.20;99.90
3756;DHT22;1893;52.526;13.360;2022-12-18T10:07:47;-5.10;99.90
3756;DHT22;1893;52.526;13.360;2022-12-18T10:10:26;-5.10;99.90
3756;DHT22;1893;52.526;13.360;2022-12-18T10:16:22;-5.20;99.90
3756;DHT22;1893;52.526;13.360;2022-12-18T10:19:16;-5.00;99.90
3756;DHT22;1893;52.526;13.360;2022-12-18T10:21:55;-5.00;99.90
3756;DHT22;1893;52.526;13.360;2022-12-18T10:24:45;-5.00;99.90
3756;DHT22;1893;52.526;13.360;2022-12-18T10:27:16;-5.00;99.90
3756;DHT22;1893;52.526;13.360;2022-12-18T10:29:43;-4.90;99.90
3756;DHT22;1893;52.526;13.360;2022-12-18T10:32:18;-4.80;99.90
3756;DHT22;1893;52.526;13.360;2022-12-18T10:34:47;-4.80;99.90
3756;DHT22;1893;52.526;13.360;2022-12-18T10:37:18;-4.70;99.90
3756;DHT22;1893;52.526;13.360;2022-12-18T10:39:44;-4.70;99.90
3756;DHT22;1893;52.526;13.360;2022-12-18T10:42:19;-4.70;99.90
3756;DHT22;1893;52.526;13.360;2022-12-18T10:44:45;-4.70;99.90
3756;DHT22;1893;52.526;13.360;2022-12-18T10:47:15;-4.50;99.90
3756;DHT22;1893;52.526;13.360;2022-12-18T10:49:52;-4.50;99.90
3756;DHT22;1893;52.526;13.360;2022-12-18T10:52:25;-4.50;99.90
3756;DHT22;1893;52.526;13.360;2022-12-18T10:54:55;-4.30;99.90
3756;DHT22;1893;52.526;13.360;2022-12-18T10:59:55;-4.30;99.90
3756;DHT22;1893;52.526;13.360;2022-12-18T11:02:39;-4.30;99.90
3756;DHT22;1893;52.526;13.360;2022-12-18T11:05:29;-4.30;99.90
3756;DHT22;1893;52.526;13.360;2022-12-18T11:07:56;-4.30;99.90
3756;DHT22;1893;52.526;13.360;2022-12-18T11:10:29;-4.20;99.90
3756;DHT22;1893;52.526;13.360;2022-12-18T11:12:57;-4.20;99.90
3756;DHT22;1893;52.526;13.360;2022-12-18T11:15:34;-4.20;99.90
3756;DHT22;1893;52.526;13.360;2022-12-18T11:17:59;-4.20;99.90
3756;DHT22;1893;52.526;13.360;2022-12-18T11:20:34;-4.20;99.90
3756;DHT22;1893;52.526;13.360;2022-12-18T11:23:05;-4.00;99.90
3756;DHT22;1893;52.526;13.360;2022-12-18T11:25:36;-3.90;99.90
3756;DHT22;1893;52.526;13.360;2022-12-18T11:28:03;-4.10;99.90
3756;DHT22;1893;52.526;13.360;2022-12-18T11:30:34;-4.10;99.90
3756;DHT22;1893;52.526;13.360;2022-12-18T11:33:18;-4.20;99.90
3756;DHT22;1893;52.526;13.360;2022-12-18T11:35:57;-4.10;99.90
3756;DHT22;1893;52.526;13.360;2022-12-18T11:38:31;-4.10;99.90
3756;DHT22;1893;52.526;13.360;2022-12-18T11:41:14;-4.00;99.90
3756;DHT22;1893;52.526;13.360;2022-12-18T11:43:48;-4.00;99.90
3756;DHT22;1893;52.526;13.360;2022-12-18T11:46:23;-4.00;99.90
3756;DHT22;1893;52.526;13.360;2022-12-18T11:48:54;-4.10;99.90
3756;DHT22;1893;52.526;13.360;2022-12-18T11:51:34;-4.10;99.90
3756;DHT22;1893;52.526;13.360;2022-12-18T11:54:14;-4.20;99.90
3756;DHT22;1893;52.526;13.360;2022-12-18T11:56:55;-4.10;99.90
3756;DHT22;1893;52.526;13.360;2022-12-18T12:02:19;-4.30;99.90
3756;DHT22;1893;52.526;13.360;2022-12-18T12:13:23;-4.30;99.90
3756;DHT22;1893;52.526;13.360;2022-12-18T12:15:58;-4.40;99.90
3756;DHT22;1893;52.526;13.360;2022-12-18T12:21:40;-4.30;99.90
3756;DHT22;1893;52.526;13.360;2022-12-18T12:24:40;-4.20;99.90
3756;DHT22;1893;52.526;13.360;2022-12-18T12:30:07;-4.10;99.90
3756;DHT22;1893;52.526;13.360;2022-12-18T12:38:19;-4.10;99.90
3756;DHT22;1893;52.526;13.360;2022-12-18T12:40:52;-4.00;99.90
3756;DHT22;1893;52.526;13.360;2022-12-18T12:43:24;-4.10;99.90
3756;DHT22;1893;52.526;13.360;2022-12-18T12:45:55;-4.10;99.90
3756;DHT22;1893;52.526;13.360;2022-12-18T12:48:34;-4.10;99.90
3756;DHT22;1893;52.526;13.360;2022-12-18T12:51:04;-4.00;99.90
3756;DHT22;1893;52.526;13.360;2022-12-18T12:53:36;-3.90;99.90
3756;DHT22;1893;52.526;13.360;2022-12-18T12:56:04;-3.90;99.90
3756;DHT22;1893;52.526;13.360;2022-12-18T12:58:46;-3.90;99.90
3756;DHT22;1893;52.526;13.360;2022-12-18T13:01:28;-3.90;99.90
3756;DHT22;1893;52.526;13.360;2022-12-18T13:07:10;-4.00;99.90
3756;DHT22;1893;52.526;13.360;2022-12-18T13:10:14;-4.00;99.90
3756;DHT22;1893;52.526;13.360;2022-12-18T13:13:03;-3.90;99.90
3756;DHT22;1893;52.526;13.360;2022-12-18T13:15:39;-3.90;99.90
3756;DHT22;1893;52.526;13.360;2022-12-18T13:23:23;-3.90;99.90
3756;DHT22;1893;52.526;13.360;2022-12-18T13:31:00;-3.90;99.90
3756;DHT22;1893;52.526;13.360;2022-12-18T13:36:12;-3.90;99.90
3756;DHT22;1893;52.526;13.360;2022-12-18T13:38:38;-3.80;99.90
3756;DHT22;1893;52.526;13.360;2022-12-18T13:41:23;-3.70;99.90
3756;DHT22;1893;52.526;13.360;2022-12-18T13:43:53;-3.80;99.90
3756;DHT22;1893;52.526;13.360;2022-12-18T13:51:22;-3.80;99.90
3756;DHT22;1893;52.526;13.360;2022-12-18T13:53:50;-3.90;99.90
3756;DHT22;1893;52.526;13.360;2022-12-18T13:56:25;-3.90;99.90
3756;DHT22;1893;52.526;13.360;2022-12-18T13:59:16;-3.90;99.90
3756;DHT22;1893;52.526;13.360;2022-12-18T14:01:56;-3.90;99.90
3756;DHT22;1893;52.526;13.360;2022-12-18T14:04:30;-3.80;99.90
3756;DHT22;1893;52.526;13.360;2022-12-18T14:07:17;-3.90;99.90
3756;DHT22;1893;52.526;13.360;2022-12-18T14:09:46;-3.90;99.90
3756;DHT22;1893;52.526;13.360;2022-12-18T14:15:03;-4.10;99.90
3756;DHT22;1893;52.526;13.360;2022-12-18T14:17:31;-4.10;99.90
3756;DHT22;1893;52.526;13.360;2022-12-18T14:19:57;-4.10;99.90
3756;DHT22;1893;52.526;13.360;2022-12-18T14:22:26;-4.10;99.90
3756;DHT22;1893;52.526;13.360;2022-12-18T14:27:49;-4.10;99.90
3756;DHT22;1893;52.526;13.360;2022-12-18T14:30:29;-4.10;99.90
3756;DHT22;1893;52.526;13.360;2022-12-18T14:33:02;-4.10;99.90
3756;DHT22;1893;52.526;13.360;2022-12-18T14:35:28;-4.00;99.90
3756;DHT22;1893;52.526;13.360;2022-12-18T14:40:36;-4.10;99.90
3756;DHT22;1893;52.526;13.360;2022-12-18T14:43:02;-4.00;99.90
3756;DHT22;1893;52.526;13.360;2022-12-18T14:45:42;-3.90;99.90
3756;DHT22;1893;52.526;13.360;2022-12-18T14:50:37;-3.90;99.90
3756;DHT22;1893;52.526;13.360;2022-12-18T14:53:03;-3.90;99.90
3756;DHT22;1893;52.526;13.360;2022-12-18T14:55:29;-4.00;99.90
3756;DHT22;1893;52.526;13.360;2022-12-18T14:57:56;-3.90;99.90
3756;DHT22;1893;52.526;13.360;2022-12-18T15:00:24;-3.90;99.90
3756;DHT22;1893;52.526;13.360;2022-12-18T15:02:54;-3.80;99.90
3756;DHT22;1893;52.526;13.360;2022-12-18T15:05:31;-3.80;99.90
3756;DHT22;1893;52.526;13.360;2022-12-18T15:07:59;-3.90;99.90
3756;DHT22;1893;52.526;13.360;2022-12-18T15:10:28;-4.00;99.90
3756;DHT22;1893;52.526;13.360;2022-12-18T15:20:49;-4.40;99.90
3756;DHT22;1893;52.526;13.360;2022-12-18T15:23:38;-4.40;99.90
3756;DHT22;1893;52.526;13.360;2022-12-18T15:26:12;-4.40;99.90
3756;DHT22;1893;52.526;13.360;2022-12-18T15:28:58;-4.30;99.90
3756;DHT22;1893;52.526;13.360;2022-12-18T15:36:23;-4.40;99.90
3756;DHT22;1893;52.526;13.360;2022-12-18T15:38:49;-4.30;99.90
3756;DHT22;1893;52.526;13.360;2022-12-18T15:41:18;-4.30;99.90
3756;DHT22;1893;52.526;13.360;2022-12-18T15:43:45;-4.20;99.90
3756;DHT22;1893;52.526;13.360;2022-12-18T15:46:19;-4.20;99.90
3756;DHT22;1893;52.526;13.360;2022-12-18T15:48:55;-4.30;99.90
3756;DHT22;1893;52.526;13.360;2022-12-18T15:51:31;-4.30;99.90
3756;DHT22;1893;52.526;13.360;2022-12-18T15:54:00;-4.30;99.90
3756;DHT22;1893;52.526;13.360;2022-12-18T15:56:26;-4.30;99.90
3756;DHT22;1893;52.526;13.360;2022-12-18T15:59:16;-4.30;99.90
3756;DHT22;1893;52.526;13.360;2022-12-18T16:01:45;-4.40;87.90
3756;DHT22;1893;52.526;13.360;2022-12-18T16:04:12;-4.40;99.90
3756;DHT22;1893;52.526;13.360;2022-12-18T16:06:39;-4.40;99.90
3756;DHT22;1893;52.526;13.360;2022-12-18T16:09:05;-4.40;99.90
3756;DHT22;1893;52.526;13.360;2022-12-18T16:11:32;-4.50;99.90
3756;DHT22;1893;52.526;13.360;2022-12-18T16:16:41;-4.30;99.90
3756;DHT22;1893;52.526;13.360;2022-12-18T16:19:07;-4.30;99.90
3756;DHT22;1893;52.526;13.360;2022-12-18T16:21:33;-4.30;99.90
3756;DHT22;1893;52.526;13.360;2022-12-18T16:23:58;-4.20;99.90
3756;DHT22;1893;52.526;13.360;2022-12-18T16:26:24;-4.20;99.90
3756;DHT22;1893;52.526;13.360;2022-12-18T16:28:49;-4.20;99.90
3756;DHT22;1893;52.526;13.360;2022-12-18T16:31:15;-4.20;99.90
3756;DHT22;1893;52.526;13.360;2022-12-18T16:33:41;-4.20;99.90
3756;DHT22;1893;52.526;13.360;2022-12-18T16:36:08;-4.20;99.90
3756;DHT22;1893;52.526;13.360;2022-12-18T16:38:33;-4.20;99.90
3756;DHT22;1893;52.526;13.360;2022-12-18T16:40:59;-4.20;88.90
3756;DHT22;1893;52.526;13.360;2022-12-18T16:43:43;-4.30;99.90
3756;DHT22;1893;52.526;13.360;2022-12-18T16:46:08;-4.30;61.90
3756;DHT22;1893;52.526;13.360;2022-12-18T16:48:34;-4.30;94.30
3756;DHT22;1893;52.526;13.360;2022-12-18T16:51:04;-4.30;75.70
3756;DHT22;1893;52.526;13.360;2022-12-18T16:53:31;-4.20;88.80
3756;DHT22;1893;52.526;13.360;2022-12-18T16:55:57;-4.20;76.40
3756;DHT22;1893;52.526;13.360;2022-12-18T16:58:23;-4.20;61.50
3756;DHT22;1893;52.526;13.360;2022-12-18T17:00:48;-4.10;70.80
3756;DHT22;1893;52.526;13.360;2022-12-18T17:03:14;-4.10;62.00
3756;DHT22;1893;52.526;13.360;2022-12-18T17:05:40;-4.10;30.00
3756;DHT22;1893;52.526;13.360;2022-12-18T17:08:05;-4.10;31.70
3756;DHT22;1893;52.526;13.360;2022-12-18T17:10:33;-4.10;11.60
3756;DHT22;1893;52.526;13.360;2022-12-18T17:12:59;-4.10;2.50
3756;DHT22;1893;52.526;13.360;2022-12-18T17:15:25;-4.10;1.00
3756;DHT22;1893;52.526;13.360;2022-12-18T17:17:51;-4.20;1.00
3756;DHT22;1893;52.526;13.360;2022-12-18T17:20:16;-4.20;1.00
3756;DHT22;1893;52.526;13.360;2022-12-18T17:22:42;-4.20;1.00
3756;DHT22;1893;52.526;13.360;2022-12-18T17:25:07;-4.10;6.50
3756;DHT22;1893;52.526;13.360;2022-12-18T17:27:33;-4.20;1.00
3756;DHT22;1893;52.526;13.360;2022-12-18T17:29:59;-4.20;1.00
3756;DHT22;1893;52.526;13.360;2022-12-18T17:32:24;-4.30;1.00
3756;DHT22;1893;52.526;13.360;2022-12-18T17:34:50;-4.20;12.50
3756;DHT22;1893;52.526;13.360;2022-12-18T17:37:15;-4.20;1.00
3756;DHT22;1893;52.526;13.360;2022-12-18T17:39:41;-4.20;1.00
3756;DHT22;1893;52.526;13.360;2022-12-18T17:42:07;-4.20;1.00
3756;DHT22;1893;52.526;13.360;2022-12-18T17:44:35;-4.20;1.00
3756;DHT22;1893;52.526;13.360;2022-12-18T17:47:00;-4.20;1.00
3756;DHT22;1893;52.526;13.360;2022-12-18T17:49:26;-4.20;1.00
3756;DHT22;1893;52.526;13.360;2022-12-18T17:51:52;-4.20;1.00
3756;DHT22;1893;52.526;13.360;2022-12-18T17:54:18;-4.10;1.00
3756;DHT22;1893;52.526;13.360;2022-12-18T17:56:44;-4.10;1.00
3756;DHT22;1893;52.526;13.360;2022-12-18T17:59:11;-4.10;1.00